Time;durP1;ratioP1;P1;durP2;ratioP2;P2;SDS_P1;SDS_P2;PMS_P1;PMS_P2;Temp;Humidity;BMP_temperature;BMP_pressure;BME280_temperature;BME280_humidity;BME280_pressure;Samples;Min_cycle;Max_cycle;Signal;HPM_P1;HPM_P2
2022/09/14 00:01:30;;;;;;;10.58;7.15;;;;;;;12.58;80.05;100733.18;1736789;82;27675;-70
2022/09/14 00:04:02;;;;;;;14.47;6.85;;;;;;;12.59;80.09;100726.79;1735656;82;25802;-72
2022/09/14 00:06:30;;;;;;;14.10;6.90;;;;;;;12.54;80.16;100728.59;1715959;82;25740;-72
2022/09/14 00:09:00;;;;;;;9.18;5.80;;;;;;;12.50;80.57;100728.52;1707455;83;25768;-71
2022/09/14 00:11:30;;;;;;;12.75;7.72;;;;;;;12.48;80.81;100736.78;1707523;83;25692;-72
2022/09/14 00:14:00;;;;;;;11.43;6.80;;;;;;;12.46;81.11;100730.67;1707338;82;27467;-72
2022/09/14 00:16:30;;;;;;;12.35;7.08;;;;;;;12.41;81.26;100726.72;1707702;82;25741;-72
2022/09/14 00:19:04;;;;;;;8.68;6.62;;;;;;;12.34;81.00;100731.38;1707419;84;25838;-72
2022/09/14 00:21:33;;;;;;;10.58;7.05;;;;;;;12.31;81.20;100724.08;1715243;82;25877;-72
2022/09/14 00:24:00;;;;;;;15.58;7.35;;;;;;;12.29;81.24;100719.33;1728445;82;25773;-72
2022/09/14 00:26:26;;;;;;;18.23;7.30;;;;;;;12.26;81.58;100718.27;1726810;82;27438;-72
2022/09/14 00:28:57;;;;;;;13.83;7.30;;;;;;;12.25;81.92;100720.61;1736773;82;25490;-72
2022/09/14 00:31:25;;;;;;;16.17;8.03;;;;;;;12.24;81.95;100713.03;1735463;82;25766;-71
2022/09/14 00:33:53;;;;;;;19.50;8.30;;;;;;;12.26;82.06;100716.92;1726164;82;25794;-71
2022/09/14 00:36:24;;;;;;;11.80;7.62;;;;;;;12.27;82.14;100721.31;1707686;82;26011;-72
2022/09/14 00:38:57;;;;;;;10.58;7.62;;;;;;;12.30;82.48;100717.82;1707177;83;27475;-71
2022/09/14 00:41:31;;;;;;;12.53;7.90;;;;;;;12.29;82.61;100719.33;1708064;82;25664;-72
2022/09/14 00:44:15;;;;;;;13.08;7.17;;;;;;;12.27;82.62;100730.28;1707519;83;25744;-71
2022/09/14 00:46:46;;;;;;;12.95;6.83;;;;;;;12.25;82.64;100729.56;1708052;82;26213;-72
2022/09/14 00:49:40;;;;;;;11.30;6.97;;;;;;;12.21;82.80;100722.27;1679122;85;25773;-71
2022/09/14 00:52:21;;;;;;;11.70;6.97;;;;;;;12.22;83.17;100724.46;1706895;82;28133;-73
2022/09/14 00:54:53;;;;;;;11.12;7.22;;;;;;;12.23;83.39;100721.28;1733375;82;25867;-71
2022/09/14 00:57:23;;;;;;;10.48;6.65;;;;;;;12.21;83.41;100718.71;1701858;83;25810;-71
2022/09/14 00:59:52;;;;;;;13.65;7.65;;;;;;;12.19;83.62;100720.22;1680601;84;25938;-72
2022/09/14 01:02:22;;;;;;;8.65;6.97;;;;;;;12.18;83.70;100712.28;1667876;83;25808;-72
2022/09/14 01:04:50;;;;;;;9.95;6.60;;;;;;;12.16;83.71;100712.41;1708961;83;27462;-71
2022/09/14 01:08:01;;;;;;;16.42;7.28;;;;;;;12.11;83.84;100709.80;1708106;83;25779;-72
2022/09/14 01:10:45;;;;;;;15.08;7.28;;;;;;;12.05;84.08;100710.76;1708649;83;26662;-72
2022/09/14 01:13:33;;;;;;;15.03;7.00;;;;;;;11.97;83.84;100709.30;1683739;83;27823;-72
2022/09/14 01:16:29;;;;;;;16.05;7.33;;;;;;;11.92;84.04;100712.91;1679668;84;25717;-72
2022/09/14 01:19:00;;;;;;;18.23;7.10;;;;;;;11.94;84.30;100701.46;1681079;83;27506;-72
2022/09/14 01:21:40;;;;;;;11.53;7.10;;;;;;;11.93;84.91;100694.37;1699280;83;25768;-72
2022/09/14 01:24:15;;;;;;;13.35;7.33;;;;;;;11.93;85.58;100707.84;1683536;84;25821;-72
2022/09/14 01:27:27;;;;;;;15.95;7.22;;;;;;;11.88;85.46;100700.20;1665681;86;27876;-72
2022/09/14 01:30:09;;;;;;;14.75;7.00;;;;;;;11.86;85.80;100701.34;1670244;85;25492;-72
2022/09/14 01:32:53;;;;;;;9.63;7.05;;;;;;;11.79;85.74;100698.37;1697264;84;27830;-72
2022/09/14 01:35:35;;;;;;;;;;;;;;;11.77;85.79;100697.70;1718846;82;25764;-72
2022/09/14 01:38:11;;;;;;;22.13;7.83;;;;;;;11.75;85.96;100685.70;1723223;82;25672;-73
2022/09/14 01:40:45;;;;;;;13.13;7.45;;;;;;;11.73;86.09;100680.98;1691449;83;25783;-72
2022/09/14 01:43:27;;;;;;;13.60;7.60;;;;;;;11.74;86.08;100677.77;1680220;85;25778;-73
2022/09/14 01:45:59;;;;;;;12.65;7.80;;;;;;;11.73;86.00;100676.94;1677403;83;27660;-72
2022/09/14 01:48:31;;;;;;;12.47;7.58;;;;;;;11.72;86.17;100679.75;1723422;83;25876;-73
2022/09/14 01:51:02;;;;;;;13.28;7.00;;;;;;;11.74;86.26;100677.77;1703467;84;25438;-72
2022/09/14 01:53:43;;;;;;;19.25;7.58;;;;;;;11.74;86.54;100678.61;1702790;83;25796;-72
2022/09/14 01:56:21;;;;;;;11.93;7.22;;;;;;;11.75;86.21;100678.96;1663736;85;25722;-71
2022/09/14 01:59:05;;;;;;;18.77;7.45;;;;;;;11.75;86.40;100674.08;1678076;84;27463;-71
2022/09/14 02:01:52;;;;;;;10.03;6.95;;;;;;;11.75;86.51;100686.20;1678029;85;25904;-73
2022/09/14 02:04:24;;;;;;;10.30;6.45;;;;;;;11.72;86.74;100672.53;1698420;82;25952;-72
2022/09/14 02:06:51;;;;;;;10.82;7.37;;;;;;;11.67;87.01;100668.58;1704808;82;25789;-72
2022/09/14 02:09:25;;;;;;;9.33;6.92;;;;;;;11.63;87.06;100665.80;1706848;82;25967;-73
2022/09/14 02:11:50;;;;;;;18.20;6.87;;;;;;;11.64;87.44;100656.73;1707152;82;26988;-72
2022/09/14 02:14:17;;;;;;;14.80;7.20;;;;;;;11.68;87.94;100656.80;1706598;84;25923;-72
2022/09/14 02:16:45;;;;;;;13.98;6.97;;;;;;;11.67;87.86;100657.28;1706311;84;25820;-73
2022/09/14 02:19:14;;;;;;;11.75;7.65;;;;;;;11.67;87.72;100650.55;1706786;84;25844;-73
2022/09/14 02:21:41;;;;;;;14.60;7.53;;;;;;;11.66;87.69;100659.62;1706652;82;25710;-73
2022/09/14 02:24:10;;;;;;;14.18;6.87;;;;;;;11.66;87.76;100664.18;1707054;82;28506;-72
2022/09/14 02:26:39;;;;;;;11.40;7.20;;;;;;;11.68;88.14;100664.89;1706526;82;25753;-71
2022/09/14 02:29:05;;;;;;;13.70;7.60;;;;;;;11.72;88.05;100665.80;1697699;84;25808;-72
2022/09/14 02:31:55;;;;;;;13.53;6.58;;;;;;;11.69;87.66;100661.20;1728034;81;25781;-72
2022/09/14 02:34:33;;;;;;;9.18;7.05;;;;;;;11.69;87.65;100665.24;1732232;81;25686;-72
2022/09/14 02:37:35;;;;;;;9.65;7.08;;;;;;;11.70;87.97;100665.56;1709525;83;28137;-72
2022/09/14 02:40:25;;;;;;;12.35;7.60;;;;;;;11.65;87.67;100669.21;1649927;84;25542;-72
2022/09/14 02:43:21;;;;;;;14.70;7.70;;;;;;;11.63;87.65;100663.11;1689442;83;25832;-72
2022/09/14 02:46:17;;;;;;;12.65;8.13;;;;;;;11.58;87.34;100667.59;1744172;81;25794;-72
2022/09/14 02:48:55;;;;;;;14.00;8.80;;;;;;;11.52;87.39;100665.48;1743686;81;25660;-72
2022/09/14 02:51:42;;;;;;;14.30;8.83;;;;;;;11.42;86.68;100669.56;1743528;80;29646;-72
2022/09/14 02:54:30;;;;;;;17.40;9.10;;;;;;;11.38;87.21;100673.52;1733991;82;25631;-71
2022/09/14 02:57:03;;;;;;;14.75;9.50;;;;;;;11.38;87.24;100667.66;1717043;81;25839;-71
2022/09/14 02:59:30;;;;;;;18.23;8.67;;;;;;;11.32;87.05;100657.94;1756608;81;26206;-71
2022/09/14 03:01:59;;;;;;;13.40;9.88;;;;;;;11.33;87.58;100662.34;1756561;81;25839;-72
2022/09/14 03:04:27;;;;;;;13.13;9.80;;;;;;;11.34;87.66;100668.08;1734763;82;27464;-71
2022/09/14 03:06:54;;;;;;;17.92;8.43;;;;;;;11.34;87.57;100666.73;1683948;85;25826;-71
2022/09/14 03:09:21;;;;;;;15.00;8.93;;;;;;;11.35;87.69;100673.80;1713395;83;25535;-72
2022/09/14 03:11:48;;;;;;;16.27;9.05;;;;;;;11.33;87.19;100666.38;1743998;82;25777;-72
2022/09/14 03:14:15;;;;;;;24.63;8.88;;;;;;;11.36;87.54;100670.11;1747937;81;25812;-73
2022/09/14 03:16:42;;;;;;;13.00;8.75;;;;;;;11.37;87.58;100666.43;1747274;81;28236;-72
2022/09/14 03:19:11;;;;;;;17.55;9.48;;;;;;;11.39;87.70;100669.33;1743952;81;25920;-72
2022/09/14 03:21:39;;;;;;;14.70;9.63;;;;;;;11.41;87.61;100668.69;1744045;81;25762;-73
2022/09/14 03:24:06;;;;;;;12.10;8.58;;;;;;;11.43;87.38;100671.23;1735670;81;25883;-72
2022/09/14 03:26:37;;;;;;;17.00;8.13;;;;;;;11.43;87.28;100674.79;1695494;84;25772;-72
2022/09/14 03:29:04;;;;;;;12.95;9.40;;;;;;;11.46;87.33;100673.64;1695221;84;28159;-72
2022/09/14 03:31:32;;;;;;;16.75;9.20;;;;;;;11.50;87.44;100671.03;1695540;84;25802;-73
2022/09/14 03:34:01;;;;;;;14.05;7.87;;;;;;;11.51;87.39;100668.69;1705490;82;25830;-73
2022/09/14 03:36:30;;;;;;;12.63;8.38;;;;;;;11.54;87.04;100676.97;1756270;81;25949;-72
2022/09/14 03:39:00;;;;;;;17.67;7.72;;;;;;;11.53;87.04;100679.31;1741968;82;25704;-72
2022/09/14 03:41:29;;;;;;;11.48;8.33;;;;;;;11.53;87.16;100683.36;1707593;84;27402;-72
2022/09/14 03:43:56;;;;;;;13.30;7.80;;;;;;;11.51;86.70;100683.51;1719609;81;25820;-72
2022/09/14 03:46:24;;;;;;;23.22;8.78;;;;;;;11.52;86.75;100681.65;1744286;82;25533;-73
2022/09/14 03:48:53;;;;;;;22.02;10.85;;;;;;;11.52;87.05;100682.48;1744384;81;26375;-72
2022/09/14 03:51:20;;;;;;;20.12;10.70;;;;;;;11.55;87.23;100684.91;1744020;82;25798;-73
2022/09/14 03:53:47;;;;;;;20.82;9.60;;;;;;;11.57;87.33;100684.27;1721197;81;27470;-72
2022/09/14 03:56:18;;;;;;;25.37;8.85;;;;;;;11.60;87.43;100687.16;1735143;82;25779;-72
2022/09/14 03:58:47;;;;;;;16.93;8.23;;;;;;;11.63;87.61;100677.45;1711587;83;25711;-73
2022/09/14 04:01:17;;;;;;;19.57;8.20;;;;;;;11.67;87.46;100680.19;1709577;83;25749;-72
2022/09/14 04:03:44;;;;;;;35.20;8.60;;;;;;;11.71;87.36;100678.92;1711946;82;26505;-73
2022/09/14 04:06:13;;;;;;;22.80;9.05;;;;;;;11.77;87.60;100669.41;1712018;82;27624;-72
2022/09/14 04:08:41;;;;;;;43.40;8.95;;;;;;;11.84;87.61;100677.73;1711381;83;25833;-74
2022/09/14 04:11:21;;;;;;;27.90;9.43;;;;;;;11.85;87.09;100673.56;1703054;83;25873;-72
2022/09/14 04:13:50;;;;;;;26.37;8.90;;;;;;;11.85;86.85;100672.21;1680417;84;25802;-73
2022/09/14 04:16:20;;;;;;;26.45;9.65;;;;;;;11.87;86.74;100674.27;1680818;85;25782;-73
2022/09/14 04:18:47;;;;;;;24.95;9.28;;;;;;;11.90;86.82;100673.95;1696727;83;28390;-74
2022/09/14 04:21:21;;;;;;;22.05;9.08;;;;;;;11.92;87.15;100675.66;1665933;85;25812;-73
2022/09/14 04:23:53;;;;;;;23.83;9.80;;;;;;;11.95;86.92;100678.06;1674416;85;25837;-73
2022/09/14 04:26:23;;;;;;;25.57;9.68;;;;;;;11.99;87.14;100677.66;1675956;84;25908;-73
2022/09/14 04:28:50;;;;;;;28.17;8.80;;;;;;;12.00;87.11;100672.62;1695674;84;25789;-72
2022/09/14 04:31:18;;;;;;;30.55;13.22;;;;;;;12.08;87.33;100675.91;1667936;86;27564;-73
2022/09/14 04:33:48;;;;;;;15.83;8.83;;;;;;;12.12;86.95;100682.71;1697820;83;26340;-73
2022/09/14 04:36:18;;;;;;;19.27;9.40;;;;;;;12.18;86.50;100678.58;1691522;83;25720;-73
2022/09/14 04:38:46;;;;;;;32.75;9.65;;;;;;;12.24;86.97;100675.27;1724806;83;25814;-72
2022/09/14 04:41:16;;;;;;;33.70;9.55;;;;;;;12.30;86.88;100670.61;1684001;83;25722;-73
2022/09/14 04:43:45;;;;;;;29.72;9.13;;;;;;;12.39;86.90;100681.02;1683382;85;27709;-73
2022/09/14 04:46:25;;;;;;;27.87;9.18;;;;;;;12.44;86.82;100680.05;1707375;83;25798;-73
2022/09/14 04:48:52;;;;;;;18.80;8.88;;;;;;;12.52;86.81;100686.89;1693884;84;25753;-74
2022/09/14 04:51:23;;;;;;;18.07;8.05;;;;;;;12.58;86.79;100685.44;1675854;84;25826;-72
2022/09/14 04:53:52;;;;;;;14.20;7.60;;;;;;;12.64;86.68;100694.78;1675920;84;26045;-73
2022/09/14 04:56:21;;;;;;;31.00;8.68;;;;;;;12.69;86.66;100687.07;1679015;84;27422;-72
2022/09/14 04:58:52;;;;;;;23.30;8.88;;;;;;;12.73;85.98;100689.83;1674408;84;25838;-73
2022/09/14 05:01:23;;;;;;;34.20;9.48;;;;;;;12.74;85.47;100691.53;1699577;82;25829;-73
2022/09/14 05:03:51;;;;;;;43.68;11.68;;;;;;;12.73;85.57;100691.69;1702575;82;25779;-73
2022/09/14 05:06:21;;;;;;;31.57;9.55;;;;;;;12.76;85.53;100692.72;1702671;83;25733;-73
2022/09/14 05:08:49;;;;;;;44.20;11.12;;;;;;;12.76;84.83;100684.14;1701623;83;27586;-72
2022/09/14 05:11:26;;;;;;;30.77;10.45;;;;;;;12.78;85.31;100687.51;1703062;82;25848;-72
2022/09/14 05:13:56;;;;;;;31.80;10.45;;;;;;;12.83;85.54;100678.47;1702094;84;25696;-72
2022/09/14 05:16:33;;;;;;;43.63;10.60;;;;;;;12.87;85.16;100682.19;1702502;83;25476;-72
2022/09/14 05:19:06;;;;;;;24.52;9.45;;;;;;;12.89;85.44;100690.98;1702174;84;25783;-72
2022/09/14 05:21:36;;;;;;;19.82;9.35;;;;;;;12.93;85.09;100680.25;1702760;82;27531;-73
2022/09/14 05:24:13;;;;;;;24.50;9.23;;;;;;;12.97;84.46;100682.48;1703318;83;25776;-72
2022/09/14 05:26:43;;;;;;;33.58;9.88;;;;;;;12.96;84.38;100686.19;1705634;83;25547;-73
2022/09/14 05:29:17;;;;;;;18.17;8.68;;;;;;;13.01;84.93;100677.63;1705792;84;25828;-73
2022/09/14 05:31:45;;;;;;;29.12;9.28;;;;;;;13.07;85.15;100676.99;1727735;82;25763;-73
2022/09/14 05:34:14;;;;;;;24.90;9.35;;;;;;;13.11;85.11;100684.28;1723072;82;27538;-73
2022/09/14 05:36:41;;;;;;;33.30;9.48;;;;;;;13.17;84.46;100686.38;1701287;84;25771;-73
2022/09/14 05:39:09;;;;;;;20.70;7.67;;;;;;;13.22;84.92;100680.00;1692935;83;25769;-73
2022/09/14 05:41:36;;;;;;;28.17;8.93;;;;;;;13.29;85.36;100678.36;1698391;84;25774;-73
2022/09/14 05:44:04;;;;;;;37.42;8.90;;;;;;;13.38;85.39;100684.69;1690559;82;25768;-72
2022/09/14 05:46:31;;;;;;;35.95;9.68;;;;;;;13.43;85.38;100678.85;1688344;84;27571;-74
2022/09/14 05:48:57;;;;;;;24.18;8.05;;;;;;;13.51;85.46;100686.16;1689547;84;25920;-73
2022/09/14 05:51:27;;;;;;;28.30;8.93;;;;;;;13.58;85.51;100681.84;1682011;84;25461;-73
2022/09/14 05:53:57;;;;;;;23.30;8.33;;;;;;;13.64;85.10;100682.55;1693058;82;25803;-75
2022/09/14 05:56:28;;;;;;;31.87;9.53;;;;;;;13.73;84.82;100684.78;1698274;83;25985;-73
2022/09/14 05:58:55;;;;;;;37.63;8.70;;;;;;;13.80;84.33;100689.06;1690575;84;27561;-72
2022/09/14 06:01:26;;;;;;;35.03;8.38;;;;;;;13.85;83.70;100688.09;1709881;83;25503;-72
2022/09/14 06:03:56;;;;;;;31.62;7.17;;;;;;;13.89;82.87;100687.61;1702624;82;25819;-71
2022/09/14 06:06:24;;;;;;;39.35;7.83;;;;;;;13.95;81.78;100685.27;1702195;83;26532;-72
2022/09/14 06:08:53;;;;;;;35.58;7.97;;;;;;;14.02;80.28;100689.88;1704575;83;25878;-73
2022/09/14 06:11:25;;;;;;;21.23;5.53;;;;;;;14.13;80.03;100689.23;1725460;83;27440;-73
2022/09/14 06:13:53;;;;;;;26.55;5.50;;;;;;;14.26;75.84;100691.00;1690842;82;25768;-73
2022/09/14 06:16:22;;;;;;;47.45;8.00;;;;;;;14.43;74.57;100687.86;1699562;83;25805;-72
2022/09/14 06:18:50;;;;;;;22.82;6.42;;;;;;;14.53;75.42;100685.84;1687148;84;25929;-72
2022/09/14 06:21:19;;;;;;;9.70;4.45;;;;;;;14.62;74.44;100689.44;1673728;85;25463;-71
2022/09/14 06:23:48;;;;;;;4.45;2.87;;;;;;;14.70;73.38;100688.14;1695617;82;27635;-73
2022/09/14 06:26:16;;;;;;;4.10;2.77;;;;;;;14.80;69.73;100700.68;1701981;84;25751;-71
2022/09/14 06:28:43;;;;;;;7.40;2.70;;;;;;;14.93;67.89;100697.48;1706775;83;25841;-72
2022/09/14 06:31:16;;;;;;;6.85;2.92;;;;;;;15.03;65.11;100700.89;1714473;83;25820;-72
2022/09/14 06:33:45;;;;;;;3.72;2.40;;;;;;;15.14;66.35;100702.42;1703358;82;25740;-72
2022/09/14 06:36:16;;;;;;;7.05;2.52;;;;;;;15.24;63.83;100703.63;1689927;84;27414;-72
2022/09/14 06:38:43;;;;;;;5.47;2.65;;;;;;;15.36;62.43;100700.08;1696187;84;25963;-72
2022/09/14 06:41:16;;;;;;;10.03;2.75;;;;;;;15.43;62.48;100695.14;1694036;84;25748;-72
2022/09/14 06:43:43;;;;;;;3.90;2.77;;;;;;;15.51;62.38;100699.72;1696985;82;26261;-73
2022/09/14 06:46:18;;;;;;;3.27;2.17;;;;;;;15.60;61.59;100699.19;1717402;81;25774;-73
2022/09/14 06:48:53;;;;;;;5.15;2.40;;;;;;;15.71;61.50;100710.22;1697308;82;28459;-73
2022/09/14 06:51:30;;;;;;;2.80;2.45;;;;;;;15.79;60.06;100698.83;1700211;84;25789;-70
2022/09/14 06:54:00;;;;;;;5.08;2.40;;;;;;;15.87;60.06;100699.89;1699748;84;25792;-73
2022/09/14 06:56:33;;;;;;;4.58;2.22;;;;;;;15.95;59.64;100695.27;1700743;82;25788;-73
2022/09/14 06:59:00;;;;;;;4.12;2.10;;;;;;;16.05;59.51;100699.66;1707365;83;25646;-75
2022/09/14 07:01:28;;;;;;;3.85;2.20;;;;;;;16.11;58.97;100697.10;1706939;84;27479;-74
2022/09/14 07:03:57;;;;;;;8.90;4.00;;;;;;;16.21;58.40;100694.70;1706862;82;25691;-74
2022/09/14 07:06:31;;;;;;;4.33;2.17;;;;;;;16.28;58.26;100691.09;1707837;82;25806;-75
2022/09/14 07:08:58;;;;;;;3.85;2.08;;;;;;;16.38;57.79;100702.25;1714136;83;26510;-74
2022/09/14 07:11:28;;;;;;;8.13;2.35;;;;;;;16.47;57.26;100693.05;1719647;83;25783;-72
2022/09/14 07:13:59;;;;;;;5.75;2.50;;;;;;;16.62;57.02;100685.52;1719787;83;27632;-73
2022/09/14 07:16:27;;;;;;;3.10;2.10;;;;;;;16.71;57.09;100687.17;1719644;83;25624;-72
2022/09/14 07:18:57;;;;;;;6.05;2.08;;;;;;;16.84;55.58;100686.05;1719423;83;25799;-71
2022/09/14 07:21:25;;;;;;;2.87;1.95;;;;;;;16.92;57.52;100678.38;1719500;83;26715;-72
2022/09/14 07:23:52;;;;;;;3.85;1.87;;;;;;;17.02;56.58;100684.45;1717856;83;25775;-72
2022/09/14 07:26:26;;;;;;;4.80;1.65;;;;;;;17.11;55.29;100676.23;1707933;83;27590;-72
2022/09/14 07:28:57;;;;;;;5.20;2.10;;;;;;;17.23;55.21;100672.03;1708025;83;26036;-71
2022/09/14 07:31:28;;;;;;;10.60;1.87;;;;;;;17.30;55.09;100671.63;1690687;84;25900;-73
2022/09/14 07:34:00;;;;;;;6.65;1.85;;;;;;;17.46;53.64;100667.09;1707100;84;26651;-70
2022/09/14 07:36:29;;;;;;;4.20;1.47;;;;;;;17.55;53.76;100670.08;1698928;84;25812;-71
2022/09/14 07:38:57;;;;;;;4.85;1.70;;;;;;;17.72;53.00;100669.38;1707289;84;27599;-71
2022/09/14 07:41:27;;;;;;;5.20;1.82;;;;;;;17.86;53.46;100666.87;1707873;83;25515;-71
2022/09/14 07:43:59;;;;;;;9.48;2.10;;;;;;;17.94;53.11;100655.89;1708018;84;25756;-71
2022/09/14 07:46:28;;;;;;;7.05;2.08;;;;;;;18.08;52.47;100658.31;1707895;84;25955;-71
2022/09/14 07:48:59;;;;;;;5.80;1.60;;;;;;;18.22;51.70;100651.17;1708058;84;25664;-72
2022/09/14 07:51:28;;;;;;;5.67;1.77;;;;;;;18.30;51.15;100645.08;1683274;84;27474;-72
2022/09/14 07:53:58;;;;;;;6.10;2.17;;;;;;;18.42;51.14;100639.98;1683432;84;25796;-72
2022/09/14 07:56:25;;;;;;;6.22;1.92;;;;;;;18.53;51.32;100633.72;1677809;85;25971;-72
2022/09/14 07:58:57;;;;;;;3.98;1.90;;;;;;;18.66;51.59;100634.38;1699484;83;25863;-71
2022/09/14 08:01:28;;;;;;;6.83;2.00;;;;;;;18.79;51.60;100616.82;1729493;83;25842;-72
2022/09/14 08:03:54;;;;;;;6.15;1.60;;;;;;;18.97;49.55;100613.66;1742264;81;27485;-71
2022/09/14 08:06:25;;;;;;;5.37;1.72;;;;;;;19.11;49.86;100606.44;1743799;81;25735;-72
2022/09/14 08:08:54;;;;;;;5.33;1.92;;;;;;;19.30;49.51;100605.44;1742570;81;25764;-72
2022/09/14 08:11:28;;;;;;;10.68;2.10;;;;;;;19.48;48.89;100596.77;1732178;81;25810;-72
2022/09/14 08:14:01;;;;;;;7.97;1.87;;;;;;;19.68;47.74;100590.06;1748540;81;25852;-72
2022/09/14 08:16:31;;;;;;;5.05;1.70;;;;;;;19.84;48.06;100602.02;1759272;81;27458;-72
2022/09/14 08:19:01;;;;;;;7.35;1.70;;;;;;;20.01;45.91;100609.39;1759684;81;25865;-72
2022/09/14 08:21:30;;;;;;;4.83;1.80;;;;;;;20.10;45.96;100597.76;1759109;81;25788;-73
2022/09/14 08:24:00;;;;;;;3.72;1.37;;;;;;;20.18;46.29;100602.21;1753828;81;25776;-72
2022/09/14 08:26:28;;;;;;;3.92;1.92;;;;;;;20.22;44.55;100599.91;1725697;83;26455;-72
2022/09/14 08:28:55;;;;;;;4.67;1.57;;;;;;;20.17;45.01;100603.25;1726252;83;27342;-72
2022/09/14 08:31:24;;;;;;;1.67;1.47;;;;;;;20.27;45.87;100610.55;1695005;84;25837;-72
2022/09/14 08:33:56;;;;;;;4.05;1.72;;;;;;;20.39;46.47;100623.09;1726064;83;25796;-72
2022/09/14 08:36:24;;;;;;;9.65;1.62;;;;;;;20.46;45.90;100627.22;1725604;83;25745;-72
2022/09/14 08:38:51;;;;;;;5.22;1.75;;;;;;;20.55;45.03;100636.91;1695592;84;25814;-71
2022/09/14 08:41:46;;;;;;;9.65;1.72;;;;;;;20.73;45.57;100631.38;1702918;83;27484;-70
2022/09/14 08:44:20;;;;;;;6.25;1.50;;;;;;;20.88;45.38;100638.07;1720894;82;25718;-71
2022/09/14 08:47:03;;;;;;;4.42;1.70;;;;;;;20.97;44.77;100633.23;1737543;81;25739;-72
2022/09/14 08:50:17;;;;;;;3.30;2.08;;;;;;;21.16;43.81;100642.52;1741073;81;26458;-72
2022/09/14 08:52:52;;;;;;;7.60;1.57;;;;;;;21.30;44.26;100636.50;1744950;81;25728;-72
2022/09/14 08:55:53;;;;;;;2.40;1.40;;;;;;;21.50;44.15;100625.02;1744883;81;27456;-72
2022/09/14 08:58:41;;;;;;;6.75;1.60;;;;;;;21.69;42.95;100624.73;1667343;85;25668;-72
2022/09/14 09:01:37;;;;;;;2.90;1.47;;;;;;;21.93;42.61;100620.11;1675001;85;26553;-72
2022/09/14 09:04:26;;;;;;;8.93;1.65;;;;;;;22.25;43.01;100601.88;1707084;83;25781;-72
2022/09/14 09:07:27;;;;;;;3.98;1.42;;;;;;;22.58;41.49;100609.64;1704668;84;27334;-73
2022/09/14 09:09:57;;;;;;;2.90;1.47;;;;;;;22.90;41.39;100601.44;1701638;83;27674;-72
2022/09/14 09:12:41;;;;;;;3.85;1.50;;;;;;;23.26;40.16;100600.73;1703302;83;25818;-73
2022/09/14 09:15:25;;;;;;;2.50;1.60;;;;;;;23.51;38.70;100595.74;1708169;83;25763;-73
2022/09/14 09:18:05;;;;;;;8.85;1.35;;;;;;;23.86;38.44;100595.15;1709588;83;25835;-74
2022/09/14 09:20:46;;;;;;;9.95;2.12;;;;;;;24.26;38.20;100593.84;1709778;83;25825;-73
2022/09/14 09:23:23;;;;;;;2.83;1.60;;;;;;;24.85;37.92;100585.83;1709952;83;27975;-73
2022/09/14 09:26:29;;;;;;;6.00;1.98;;;;;;;25.56;35.91;100581.47;1710352;83;25844;-73
2022/09/14 09:29:02;;;;;;;3.37;1.20;;;;;;;26.35;33.71;100585.63;1705228;83;25722;-75
2022/09/14 09:31:55;;;;;;;13.48;1.10;;;;;;;27.07;32.17;100591.06;1694119;83;26490;-74
2022/09/14 09:34:28;;;;;;;2.75;1.00;;;;;;;27.68;31.49;100595.87;1690508;84;26469;-75
2022/09/14 09:36:59;;;;;;;1.80;1.17;;;;;;;28.04;30.68;100593.57;1690607;84;28199;-74
2022/09/14 09:39:28;;;;;;;2.55;1.20;;;;;;;28.55;30.27;100589.76;1697124;83;26055;-74
2022/09/14 09:42:07;;;;;;;1.92;1.35;;;;;;;28.86;30.45;100576.22;1709716;83;25895;-73
2022/09/14 09:45:04;;;;;;;5.60;1.10;;;;;;;29.28;29.22;100569.06;1709907;83;25796;-74
2022/09/14 09:47:40;;;;;;;2.65;1.45;;;;;;;29.13;29.17;100578.09;1709519;83;25727;-74
2022/09/14 09:50:18;;;;;;;2.05;1.00;;;;;;;28.88;28.43;100579.00;1709922;83;27370;-74
2022/09/14 09:52:55;;;;;;;1.52;1.10;;;;;;;29.45;28.65;100574.48;1709337;83;25739;-75
2022/09/14 09:55:28;;;;;;;3.08;0.98;;;;;;;29.80;27.36;100572.43;1709844;83;25808;-75
2022/09/14 09:57:55;;;;;;;3.02;1.60;;;;;;;29.54;26.55;100581.15;1702905;83;25997;-72
2022/09/14 10:00:28;;;;;;;3.22;0.90;;;;;;;29.58;26.94;100569.83;1686727;84;25748;-74
2022/09/14 10:03:01;;;;;;;2.70;1.07;;;;;;;30.28;26.62;100562.63;1683309;84;27468;-74
2022/09/14 10:05:31;;;;;;;1.32;0.85;;;;;;;30.88;26.72;100561.34;1706966;84;25756;-74
2022/09/14 10:08:01;;;;;;;2.05;1.00;;;;;;;31.53;24.87;100573.23;1707204;84;25753;-74
2022/09/14 10:10:41;;;;;;;4.17;1.20;;;;;;;31.87;25.30;100573.97;1707296;84;25934;-74
2022/09/14 10:13:32;;;;;;;5.28;1.15;;;;;;;32.35;25.58;100571.27;1707368;84;25722;-73
2022/09/14 10:16:17;;;;;;;2.75;1.10;;;;;;;32.87;25.20;100561.98;1707266;84;27329;-73
2022/09/14 10:18:52;;;;;;;3.17;0.80;;;;;;;33.40;25.38;100546.70;1691568;84;25849;-75
2022/09/14 10:21:25;;;;;;;2.55;0.95;;;;;;;34.10;22.80;100553.43;1705906;83;25477;-73
2022/09/14 10:24:07;;;;;;;;;;;;;;;34.07;22.31;100556.81;1720341;83;25886;-73
2022/09/14 10:26:36;;;;;;;5.67;0.78;;;;;;;34.01;21.86;100567.21;1706292;83;25732;-74
2022/09/14 10:29:31;;;;;;;4.78;0.80;;;;;;;33.39;21.15;100559.02;1707329;84;28249;-74
2022/09/14 10:32:06;;;;;;;2.37;0.88;;;;;;;33.47;21.18;100551.94;1717654;83;25715;-74
2022/09/14 10:34:34;;;;;;;1.12;0.68;;;;;;;33.85;21.70;100551.20;1719558;83;25730;-74
2022/09/14 10:37:12;;;;;;;1.45;0.80;;;;;;;34.21;22.34;100538.75;1719794;83;26444;-73
2022/09/14 10:39:51;;;;;;;4.15;1.55;;;;;;;34.80;22.29;100535.86;1714372;83;25664;-73
2022/09/14 10:42:32;;;;;;;4.62;0.80;;;;;;;35.19;20.32;100534.38;1707300;83;26895;-73
2022/09/14 10:45:10;;;;;;;4.87;0.93;;;;;;;35.17;20.50;100524.06;1708073;83;27584;-74
2022/09/14 10:47:54;;;;;;;3.10;0.60;;;;;;;35.19;20.39;100528.20;1707650;83;25685;-73
2022/09/14 10:50:49;;;;;;;2.22;0.78;;;;;;;34.72;20.79;100518.99;1707920;83;27835;-73
2022/09/14 10:53:30;;;;;;;7.22;0.80;;;;;;;34.87;21.21;100515.10;1707637;83;26725;-73
2022/09/14 10:56:06;;;;;;;8.37;1.03;;;;;;;35.49;21.21;100516.19;1677512;84;27484;-72
2022/09/14 10:58:50;;;;;;;9.15;1.02;;;;;;;35.82;21.00;100518.84;1661736;84;25809;-73
2022/09/14 11:01:44;;;;;;;5.33;0.90;;;;;;;35.77;19.59;100518.97;1713786;83;25756;-72
2022/09/14 11:04:48;;;;;;;4.30;0.80;;;;;;;35.56;19.61;100514.38;1716957;83;26489;-72
2022/09/14 11:07:23;;;;;;;7.62;0.80;;;;;;;35.59;20.45;100507.33;1712413;83;25785;-72
2022/09/14 11:10:03;;;;;;;0.55;0.50;;;;;;;36.15;20.17;100513.11;1711891;83;27444;-73
2022/09/14 11:12:39;;;;;;;2.70;0.65;;;;;;;35.77;19.10;100516.17;1713558;83;25816;-73
2022/09/14 11:15:23;;;;;;;1.17;0.70;;;;;;;35.68;18.90;100517.46;1713901;82;25872;-72
2022/09/14 11:18:10;;;;;;;3.67;0.75;;;;;;;35.70;18.74;100508.78;1682106;84;25856;-71
2022/09/14 11:20:54;;;;;;;1.32;0.75;;;;;;;35.66;18.85;100522.56;1713920;83;25769;-71
2022/09/14 11:23:31;;;;;;;2.00;0.60;;;;;;;35.09;19.47;100526.45;1684407;85;27499;-71
2022/09/14 11:26:34;;;;;;;0.98;0.68;;;;;;;35.16;19.98;100512.63;1720516;83;25845;-73
2022/09/14 11:29:28;;;;;;;;;;;;;;;35.12;19.88;100501.23;1701461;83;25730;-71
2022/09/14 11:32:11;;;;;;;3.90;0.90;;;;;;;35.51;19.00;100511.13;1706201;83;25860;-72
2022/09/14 11:34:47;;;;;;;3.83;0.75;;;;;;;35.31;19.81;100499.77;1716691;82;25795;-72
2022/09/14 11:37:18;;;;;;;1.20;0.68;;;;;;;35.26;19.21;100503.48;1686493;83;27495;-72
2022/09/14 11:40:05;;;;;;;2.63;0.70;;;;;;;35.04;19.25;100498.61;1720142;83;25811;-72
2022/09/14 11:42:46;;;;;;;2.02;0.70;;;;;;;34.98;19.29;100489.22;1684037;85;25639;-72
2022/09/14 11:45:45;;;;;;;4.08;0.85;;;;;;;34.89;19.12;100480.13;1706113;82;27910;-73
2022/09/14 11:48:39;;;;;;;6.58;0.82;;;;;;;34.57;19.68;100480.39;1710872;82;25750;-72
2022/09/14 11:51:18;;;;;;;0.68;0.55;;;;;;;34.01;19.39;100489.92;1713022;83;28611;-72
2022/09/14 11:53:46;;;;;;;8.23;1.00;;;;;;;33.86;20.53;100477.02;1703953;82;25751;-72
2022/09/14 11:56:32;;;;;;;3.52;0.70;;;;;;;34.13;20.48;100477.45;1706601;83;25634;-72